Rechercher aéroport 
image banner adimage banner adimage banner ad
image banner ad

KNID - China Lake Naws (Armitage Fld)

Situé à China Lake, United States

ICAO - NID, IATA -

Données fournies par Airmate  

Information générale

Coordonnées: N35°41'9" W117°41'32"
Élévation : 2284 feet MSL.
Variation magnétique : 14° East
Voir autres Aéroports à California

Données opérationnelles

Special qualification required
Heure actuelle UTC:
Heure actuelle locale:
Météo
METAR: KNID 251256Z AUTO 21005KT 10SM CLR 28/04 A2993 RMK AO2 SLP108 T02780039 $
Voir NOTAMs / SUP AIP / TFR affectant cet aéroport [VIEW]
Fréquences de communication: [VIEW]

Pistes:

Identifiant RWYQFULongueur (ft)Largeur (ft)SurfaceLDA (ft)
0342°10001200CONC
21222°10001200CONC
0890°711175CONC
26270°711175CONC
14154°9014200ASPH
32334°9014200ASPH

Coordonnées de l'aéroport

Adresse: China Lake United States

Vue satellite de KNID